Time;durP1;ratioP1;P1;durP2;ratioP2;P2;SDS_P1;SDS_P2;PMS_P1;PMS_P2;Temp;Humidity;BMP_temperature;BMP_pressure;BME280_temperature;BME280_humidity;BME280_pressure;Samples;Min_cycle;Max_cycle;Signal;HPM_P1;HPM_P2
2021/12/11 00:01:17;;;;;;;28.40;12.87;;;2.80;99.90;;;;;;5065539;28;20223;-41
2021/12/11 00:03:47;;;;;;;24.53;12.07;;;2.90;99.90;;;;;;5043876;28;20347;-41
2021/12/11 00:06:23;;;;;;;27.53;12.67;;;2.90;99.90;;;;;;5063396;28;20215;-41
2021/12/11 00:08:54;;;;;;;25.97;13.10;;;3.00;99.90;;;;;;5061648;28;20224;-40
2021/12/11 00:11:26;;;;;;;24.63;12.87;;;3.00;99.90;;;;;;5060381;28;20295;-40
2021/12/11 00:13:55;;;;;;;29.43;12.90;;;3.00;99.90;;;;;;5070241;28;20231;-40
2021/12/11 00:16:22;;;;;;;24.13;12.33;;;3.00;99.90;;;;;;5083922;28;20205;-40
2021/12/11 00:18:51;;;;;;;25.57;12.77;;;3.00;99.90;;;;;;5059831;27;20246;-40
2021/12/11 00:21:20;;;;;;;26.50;13.10;;;3.00;99.90;;;;;;5069219;28;20323;-40
2021/12/11 00:23:52;;;;;;;27.57;12.57;;;3.00;99.90;;;;;;5065334;28;20253;-40
2021/12/11 00:26:26;;;;;;;27.80;12.23;;;3.00;99.90;;;;;;5051099;27;20204;-40
2021/12/11 00:28:54;;;;;;;27.37;12.27;;;3.00;99.90;;;;;;5063923;28;20215;-40
2021/12/11 00:31:21;;;;;;;28.80;13.90;;;3.10;99.90;;;;;;5046860;28;20202;-46
2021/12/11 00:33:50;;;;;;;25.47;13.47;;;3.00;99.90;;;;;;5063667;28;20219;-46
2021/12/11 00:36:20;;;;;;;27.83;13.13;;;2.90;99.90;;;;;;5042447;28;20759;-46
2021/12/11 00:38:50;;;;;;;35.70;13.70;;;2.80;99.90;;;;;;5055780;28;20237;-46
2021/12/11 00:41:20;;;;;;;31.33;14.10;;;2.80;99.90;;;;;;5058344;28;20273;-45
2021/12/11 00:43:50;;;;;;;33.90;13.13;;;2.90;99.90;;;;;;5060263;28;20313;-46
2021/12/11 00:46:26;;;;;;;33.43;13.57;;;2.90;99.90;;;;;;5075476;28;20206;-46
2021/12/11 00:48:53;;;;;;;31.50;13.87;;;2.90;99.90;;;;;;5038218;28;20207;-46
2021/12/11 00:51:22;;;;;;;27.70;12.47;;;2.90;99.90;;;;;;5062970;28;20210;-46
2021/12/11 00:53:52;;;;;;;27.97;12.70;;;2.90;99.90;;;;;;5067474;28;20234;-40
2021/12/11 00:56:23;;;;;;;24.47;12.80;;;2.90;99.90;;;;;;5065105;28;20707;-40
2021/12/11 00:58:55;;;;;;;30.03;13.07;;;2.80;99.90;;;;;;5060858;28;20206;-40
2021/12/11 01:01:24;;;;;;;28.47;12.67;;;2.80;99.90;;;;;;5064219;28;20240;-40
2021/12/11 01:03:56;;;;;;;23.87;12.07;;;2.80;99.90;;;;;;5058129;28;20232;-40
2021/12/11 01:06:28;;;;;;;24.07;12.47;;;2.80;99.90;;;;;;5073816;28;20801;-40
2021/12/11 01:08:59;;;;;;;29.90;13.87;;;2.90;99.90;;;;;;5059015;28;20268;-40
2021/12/11 01:11:30;;;;;;;31.23;11.77;;;2.90;99.90;;;;;;5074205;28;20207;-40
2021/12/11 01:14:10;;;;;;;28.90;13.20;;;2.90;99.90;;;;;;5045111;28;20720;-40
2021/12/11 01:16:38;;;;;;;23.43;12.27;;;2.90;99.90;;;;;;5079310;28;20218;-40
2021/12/11 01:19:07;;;;;;;28.07;13.17;;;2.90;99.90;;;;;;5049923;28;20207;-40
2021/12/11 01:21:54;;;;;;;26.83;13.40;;;2.90;99.90;;;;;;5056813;28;20217;-40
2021/12/11 01:24:29;;;;;;;27.57;11.77;;;2.90;99.90;;;;;;5046439;28;20600;-40
2021/12/11 01:26:59;;;;;;;28.90;12.93;;;2.90;99.90;;;;;;5056763;28;20212;-40
2021/12/11 01:29:29;;;;;;;24.33;12.67;;;2.70;99.90;;;;;;5045894;28;20221;-40
2021/12/11 01:31:57;;;;;;;25.17;11.50;;;2.70;99.90;;;;;;5055944;28;20204;-40
2021/12/11 01:34:25;;;;;;;30.30;11.90;;;2.80;99.90;;;;;;5072361;28;20223;-40
2021/12/11 01:36:53;;;;;;;27.37;12.63;;;2.80;99.90;;;;;;5054609;28;20210;-40
2021/12/11 01:39:24;;;;;;;26.47;12.23;;;2.70;99.90;;;;;;5065543;28;20200;-40
2021/12/11 01:41:53;;;;;;;23.13;11.17;;;2.70;99.90;;;;;;5060010;28;20220;-40
2021/12/11 01:44:29;;;;;;;29.67;11.60;;;2.70;99.90;;;;;;5058682;28;20226;-40
2021/12/11 01:47:03;;;;;;;22.10;11.53;;;2.60;99.90;;;;;;5059718;28;20293;-40
2021/12/11 01:49:31;;;;;;;29.97;12.37;;;2.50;99.90;;;;;;5069645;28;20211;-40
2021/12/11 01:52:01;;;;;;;22.40;11.63;;;2.40;99.90;;;;;;5054231;28;20229;-40
2021/12/11 01:54:32;;;;;;;26.80;11.83;;;2.40;99.90;;;;;;5068482;28;20228;-40
2021/12/11 01:57:02;;;;;;;23.33;11.63;;;2.50;99.90;;;;;;5051007;28;20312;-40
2021/12/11 01:59:32;;;;;;;23.00;11.33;;;2.50;99.90;;;;;;5060859;28;20493;-40
2021/12/11 02:02:06;;;;;;;24.27;11.07;;;2.50;99.90;;;;;;5051110;28;21617;-47
2021/12/11 02:04:40;;;;;;;23.60;11.20;;;2.40;99.90;;;;;;5078172;28;20226;-46
2021/12/11 02:07:12;;;;;;;30.87;12.27;;;2.40;99.90;;;;;;5037918;28;20438;-46
2021/12/11 02:09:43;;;;;;;29.80;12.80;;;2.50;99.90;;;;;;5069910;28;20210;-46
2021/12/11 02:12:13;;;;;;;26.13;11.27;;;2.50;99.90;;;;;;5067891;28;20432;-46
2021/12/11 02:14:45;;;;;;;21.27;11.03;;;2.50;99.90;;;;;;5053729;28;20232;-45
2021/12/11 02:17:22;;;;;;;22.10;11.13;;;2.50;99.90;;;;;;5057164;28;21281;-46
2021/12/11 02:19:52;;;;;;;21.93;11.63;;;2.40;99.90;;;;;;5074103;28;20680;-46
2021/12/11 02:22:22;;;;;;;25.60;11.70;;;2.50;99.90;;;;;;5057502;28;20226;-46
2021/12/11 02:24:55;;;;;;;22.33;11.27;;;2.50;99.90;;;;;;5040186;28;20235;-47
2021/12/11 02:27:26;;;;;;;28.67;12.17;;;2.30;99.90;;;;;;5071042;28;20582;-46
2021/12/11 02:29:58;;;;;;;24.63;12.17;;;2.40;99.90;;;;;;5055745;28;20218;-47
2021/12/11 02:32:31;;;;;;;23.27;11.93;;;2.50;99.90;;;;;;5063198;28;20207;-46
2021/12/11 02:35:02;;;;;;;22.10;11.17;;;2.40;99.90;;;;;;5066379;28;21040;-47
2021/12/11 02:37:37;;;;;;;28.80;11.67;;;2.30;99.90;;;;;;5059658;28;20706;-47
2021/12/11 02:40:13;;;;;;;29.27;11.90;;;2.30;99.90;;;;;;5064151;28;20205;-47
2021/12/11 02:42:49;;;;;;;20.27;10.90;;;2.30;99.90;;;;;;5062993;28;20234;-47
2021/12/11 02:45:20;;;;;;;22.23;12.17;;;2.40;99.90;;;;;;5071681;28;20382;-47
2021/12/11 02:47:50;;;;;;;23.50;11.10;;;2.30;99.90;;;;;;5061274;28;20211;-46
2021/12/11 02:50:22;;;;;;;23.47;10.73;;;2.40;99.90;;;;;;5072339;28;20209;-47
2021/12/11 02:52:55;;;;;;;23.83;12.00;;;2.40;99.90;;;;;;5056793;27;20786;-46
2021/12/11 02:55:30;;;;;;;22.30;11.83;;;2.40;99.90;;;;;;5067119;28;20212;-46
2021/12/11 02:58:00;;;;;;;22.27;12.53;;;2.50;99.90;;;;;;5060348;28;20673;-46
2021/12/11 03:00:32;;;;;;;24.10;11.43;;;2.50;99.90;;;;;;5073998;28;20210;-47
2021/12/11 03:03:06;;;;;;;22.83;11.23;;;2.50;99.90;;;;;;5041762;28;20793;-47
2021/12/11 03:05:40;;;;;;;20.50;10.90;;;2.50;99.90;;;;;;5072392;28;20287;-46
2021/12/11 03:08:11;;;;;;;25.07;12.53;;;2.50;99.90;;;;;;5060133;28;20217;-46
2021/12/11 03:10:40;;;;;;;21.20;10.90;;;2.50;99.90;;;;;;5070522;28;20223;-46
2021/12/11 03:13:07;;;;;;;24.13;12.13;;;2.40;99.90;;;;;;5059349;28;20272;-47
2021/12/11 03:15:34;;;;;;;25.87;11.80;;;2.40;99.90;;;;;;5080442;28;20199;-40
2021/12/11 03:18:03;;;;;;;23.63;11.53;;;2.40;99.90;;;;;;5059148;28;20808;-40
2021/12/11 03:20:31;;;;;;;22.37;10.63;;;2.40;99.90;;;;;;5076658;28;20217;-40
2021/12/11 03:22:58;;;;;;;26.30;12.27;;;2.40;99.90;;;;;;5052200;28;20362;-41
2021/12/11 03:25:28;;;;;;;19.57;10.77;;;2.40;99.90;;;;;;5064450;28;20920;-40
2021/12/11 03:27:56;;;;;;;22.63;11.50;;;2.40;99.90;;;;;;5054995;28;20666;-40
2021/12/11 03:30:25;;;;;;;23.17;11.17;;;2.40;99.90;;;;;;5048347;28;20402;-40
2021/12/11 03:32:55;;;;;;;23.63;11.40;;;2.40;99.90;;;;;;5062188;27;20200;-40
2021/12/11 03:35:22;;;;;;;21.57;10.47;;;2.40;99.90;;;;;;5059972;28;20204;-40
2021/12/11 03:37:51;;;;;;;22.53;11.57;;;2.40;99.90;;;;;;5078455;28;20209;-40
2021/12/11 03:40:18;;;;;;;21.53;10.97;;;2.30;99.90;;;;;;5045450;28;20232;-42
2021/12/11 03:42:49;;;;;;;21.53;10.70;;;2.30;99.90;;;;;;5062385;28;20222;-40
2021/12/11 03:45:20;;;;;;;22.50;10.90;;;2.30;99.90;;;;;;5078231;27;20213;-40
2021/12/11 03:47:51;;;;;;;24.90;10.83;;;2.20;99.90;;;;;;5051734;28;20217;-40
2021/12/11 03:50:20;;;;;;;25.13;12.17;;;2.30;99.90;;;;;;5072105;28;20202;-40
2021/12/11 03:52:49;;;;;;;19.53;10.57;;;2.30;99.90;;;;;;5051061;28;20205;-40
2021/12/11 03:55:26;;;;;;;25.43;11.87;;;2.30;99.90;;;;;;5054771;28;20215;-40
2021/12/11 03:57:59;;;;;;;23.23;11.47;;;2.20;99.90;;;;;;5052334;28;20206;-40
2021/12/11 04:00:32;;;;;;;24.47;11.10;;;2.20;99.90;;;;;;5064374;27;20233;-40
2021/12/11 04:03:03;;;;;;;20.50;11.43;;;2.10;99.90;;;;;;5056217;27;23301;-40
2021/12/11 04:05:33;;;;;;;21.30;11.17;;;2.10;99.90;;;;;;5069511;28;20588;-40
2021/12/11 04:08:00;;;;;;;21.83;10.63;;;2.10;99.90;;;;;;5034045;28;20320;-40
2021/12/11 04:10:27;;;;;;;22.90;11.37;;;2.00;99.90;;;;;;5049426;28;20284;-40
2021/12/11 04:12:57;;;;;;;24.77;11.60;;;2.00;99.90;;;;;;5061194;28;20208;-40
2021/12/11 04:15:24;;;;;;;24.13;10.47;;;2.10;99.90;;;;;;5053531;28;20216;-40
2021/12/11 04:17:54;;;;;;;23.73;10.37;;;2.00;99.90;;;;;;5061366;28;20210;-40
2021/12/11 04:20:23;;;;;;;19.93;10.97;;;2.00;99.90;;;;;;5055787;28;20236;-40
2021/12/11 04:22:50;;;;;;;20.57;9.83;;;2.00;99.90;;;;;;5061692;28;20244;-41
2021/12/11 04:25:20;;;;;;;22.93;10.37;;;2.10;99.90;;;;;;5046655;28;20216;-41
2021/12/11 04:27:48;;;;;;;23.93;10.20;;;2.10;99.90;;;;;;5056079;28;20345;-41
2021/12/11 04:30:18;;;;;;;19.20;9.70;;;2.10;99.90;;;;;;5048318;28;20212;-41
2021/12/11 04:32:46;;;;;;;23.80;10.33;;;2.10;99.90;;;;;;5071280;28;20186;-41
2021/12/11 04:35:14;;;;;;;19.07;10.77;;;2.10;99.90;;;;;;5060140;28;20735;-40
2021/12/11 04:37:42;;;;;;;20.70;10.20;;;2.10;99.90;;;;;;5061177;27;20209;-40
2021/12/11 04:40:14;;;;;;;21.20;10.77;;;2.20;99.90;;;;;;5060458;28;20213;-42
2021/12/11 04:42:51;;;;;;;23.37;11.20;;;2.20;99.90;;;;;;5050083;28;20221;-40
2021/12/11 04:45:24;;;;;;;19.60;10.00;;;2.30;99.90;;;;;;5060134;28;20301;-40
2021/12/11 04:47:56;;;;;;;20.13;10.23;;;2.20;99.90;;;;;;5054475;28;20205;-40
2021/12/11 04:50:31;;;;;;;17.10;9.97;;;2.30;99.90;;;;;;5060608;28;20614;-40
2021/12/11 04:52:59;;;;;;;20.00;10.03;;;2.30;99.90;;;;;;5070470;27;20201;-40
2021/12/11 04:55:49;;;;;;;19.33;10.27;;;2.20;99.90;;;;;;5074019;27;20639;-40
2021/12/11 04:58:45;;;;;;;20.43;9.23;;;2.20;99.90;;;;;;5049879;28;20393;-40
2021/12/11 05:01:32;;;;;;;18.93;9.20;;;2.20;99.90;;;;;;5053269;27;20211;-40
2021/12/11 05:06:56;;;;;;;19.13;9.50;;;2.20;99.90;;;;;;5068874;28;20200;-40
2021/12/11 05:09:31;;;;;;;17.73;9.53;;;2.30;99.90;;;;;;5072732;28;20207;-40
2021/12/11 05:12:10;;;;;;;20.43;10.33;;;2.20;99.90;;;;;;5049609;28;20608;-41
2021/12/11 05:14:38;;;;;;;21.57;10.90;;;2.10;99.90;;;;;;5065789;28;20325;-40
2021/12/11 05:17:08;;;;;;;22.53;9.93;;;2.20;99.90;;;;;;5057262;28;21335;-40
2021/12/11 05:19:36;;;;;;;17.67;10.10;;;2.20;99.90;;;;;;5060881;28;20214;-40
2021/12/11 05:22:05;;;;;;;18.73;10.10;;;2.20;99.90;;;;;;5072007;28;20219;-40
2021/12/11 05:24:33;;;;;;;19.60;10.30;;;2.10;99.90;;;;;;5073408;28;20857;-40
2021/12/11 05:27:01;;;;;;;17.27;10.20;;;2.20;99.90;;;;;;5062808;28;20202;-40
2021/12/11 05:29:28;;;;;;;18.60;9.57;;;2.10;99.90;;;;;;5063900;28;20568;-41
2021/12/11 05:31:55;;;;;;;21.27;10.70;;;2.10;99.90;;;;;;5047880;28;20232;-41
2021/12/11 05:34:23;;;;;;;19.70;10.10;;;2.20;99.90;;;;;;5078356;28;20371;-41
2021/12/11 05:36:50;;;;;;;18.27;10.07;;;2.10;99.90;;;;;;5060577;28;20211;-41
2021/12/11 05:39:19;;;;;;;19.13;9.27;;;2.20;99.90;;;;;;5076047;28;20438;-41
2021/12/11 05:41:47;;;;;;;20.80;10.37;;;2.20;99.90;;;;;;5077968;28;20202;-41
2021/12/11 05:44:16;;;;;;;20.83;10.53;;;2.20;99.90;;;;;;5059713;28;20499;-41
2021/12/11 05:46:44;;;;;;;25.63;10.47;;;2.10;99.90;;;;;;5073451;28;20209;-41
2021/12/11 05:49:11;;;;;;;19.37;10.00;;;2.10;99.90;;;;;;5060276;28;20211;-41
2021/12/11 05:51:41;;;;;;;17.47;9.43;;;2.00;99.90;;;;;;5062534;28;20528;-41
2021/12/11 05:54:12;;;;;;;21.27;10.20;;;2.00;99.90;;;;;;5075421;28;21417;-41
2021/12/11 05:56:41;;;;;;;18.87;9.73;;;2.00;99.90;;;;;;5077904;28;20770;-41
2021/12/11 05:59:09;;;;;;;19.50;9.67;;;1.90;99.90;;;;;;5038600;28;20226;-41
2021/12/11 06:01:41;;;;;;;18.83;10.50;;;2.00;99.90;;;;;;5072373;27;20196;-41
2021/12/11 06:04:11;;;;;;;19.33;10.07;;;1.90;99.90;;;;;;5063463;28;20596;-41
2021/12/11 06:06:41;;;;;;;18.23;9.53;;;1.90;99.90;;;;;;5062811;28;20209;-41
2021/12/11 06:09:11;;;;;;;19.80;10.47;;;1.80;99.90;;;;;;5079016;28;20241;-41
2021/12/11 06:11:39;;;;;;;17.47;10.47;;;2.00;99.90;;;;;;5075812;28;20569;-41
2021/12/11 06:14:07;;;;;;;14.63;9.00;;;1.90;99.90;;;;;;5054652;28;20229;-41
2021/12/11 06:16:34;;;;;;;17.67;9.20;;;1.90;99.90;;;;;;5065667;28;20610;-41
2021/12/11 06:19:04;;;;;;;20.10;9.63;;;1.90;99.90;;;;;;5048111;28;20213;-41
2021/12/11 06:21:32;;;;;;;21.77;9.77;;;1.80;99.90;;;;;;5060081;27;20216;-41
2021/12/11 06:24:01;;;;;;;17.90;9.33;;;1.80;99.90;;;;;;5074439;28;20266;-41
2021/12/11 06:26:28;;;;;;;16.07;8.80;;;1.70;99.90;;;;;;5080182;28;20208;-41
2021/12/11 06:28:55;;;;;;;17.93;9.37;;;1.80;99.90;;;;;;5045342;28;20630;-41
2021/12/11 06:31:22;;;;;;;16.80;9.33;;;1.60;99.90;;;;;;5071129;28;20289;-41
2021/12/11 06:33:51;;;;;;;17.37;9.63;;;1.60;99.90;;;;;;5056353;28;20224;-41
2021/12/11 06:36:20;;;;;;;17.67;9.53;;;1.60;99.90;;;;;;5067352;28;20850;-41
2021/12/11 06:38:49;;;;;;;17.97;9.67;;;1.60;99.90;;;;;;5060926;28;20212;-41
2021/12/11 06:41:22;;;;;;;16.97;9.33;;;1.60;99.90;;;;;;5075108;28;20410;-41
2021/12/11 06:43:49;;;;;;;17.80;9.07;;;1.60;99.90;;;;;;5071642;28;20462;-42
2021/12/11 06:46:18;;;;;;;19.23;10.20;;;1.60;99.90;;;;;;5065121;28;20217;-41
2021/12/11 06:48:45;;;;;;;17.93;9.10;;;1.50;99.90;;;;;;5084219;28;20201;-41
2021/12/11 06:51:12;;;;;;;18.40;10.47;;;1.50;99.90;;;;;;5051319;28;20415;-41
2021/12/11 06:53:42;;;;;;;18.20;9.97;;;1.50;99.90;;;;;;5060731;28;20229;-41
2021/12/11 06:56:11;;;;;;;16.50;9.13;;;1.50;99.90;;;;;;5063928;28;20408;-41
2021/12/11 06:58:40;;;;;;;17.47;10.70;;;1.50;99.90;;;;;;5079813;28;20207;-41
2021/12/11 07:01:08;;;;;;;22.87;11.10;;;1.50;99.90;;;;;;5060017;27;20770;-41
2021/12/11 07:03:37;;;;;;;18.30;9.93;;;1.50;99.90;;;;;;5047197;28;20219;-41
2021/12/11 07:06:06;;;;;;;17.83;11.00;;;1.50;99.90;;;;;;5067322;28;20211;-41
2021/12/11 07:08:35;;;;;;;18.80;10.50;;;1.60;99.90;;;;;;5025537;27;20272;-40
2021/12/11 07:11:02;;;;;;;16.83;9.97;;;1.60;99.90;;;;;;5080299;28;20291;-41
2021/12/11 07:13:29;;;;;;;17.73;11.27;;;1.50;99.90;;;;;;5061386;28;20216;-41
2021/12/11 07:15:58;;;;;;;19.23;10.60;;;1.50;99.90;;;;;;5057352;28;20218;-43
2021/12/11 07:18:27;;;;;;;18.87;10.33;;;1.50;99.90;;;;;;5080532;28;20675;-40
2021/12/11 07:20:54;;;;;;;18.60;9.97;;;1.50;99.90;;;;;;5062102;28;20486;-40
2021/12/11 07:23:21;;;;;;;17.83;10.63;;;1.50;99.90;;;;;;5055459;28;20689;-41
2021/12/11 07:25:51;;;;;;;18.23;10.53;;;1.50;99.90;;;;;;5064611;28;20470;-40
2021/12/11 07:28:20;;;;;;;17.40;9.80;;;1.60;99.90;;;;;;5055355;28;20546;-45
2021/12/11 07:30:49;;;;;;;18.90;11.40;;;1.60;99.90;;;;;;5064865;28;20201;-41
2021/12/11 07:33:18;;;;;;;19.27;10.70;;;1.60;99.90;;;;;;5041850;28;21230;-45
2021/12/11 07:35:46;;;;;;;19.43;10.90;;;1.60;99.90;;;;;;5055334;28;20219;-45
2021/12/11 07:38:14;;;;;;;18.67;11.37;;;1.70;99.90;;;;;;5065265;28;20220;-45
2021/12/11 07:40:45;;;;;;;19.13;10.60;;;1.70;99.90;;;;;;5044794;28;21050;-46
2021/12/11 07:43:13;;;;;;;21.13;10.83;;;1.70;99.90;;;;;;5080212;28;20322;-47
2021/12/11 07:45:40;;;;;;;18.37;10.50;;;1.80;99.90;;;;;;5067380;27;20206;-47
2021/12/11 07:48:08;;;;;;;19.03;11.53;;;1.80;99.90;;;;;;5058408;28;20352;-47
2021/12/11 07:50:37;;;;;;;23.00;11.97;;;1.80;99.90;;;;;;5039897;27;20201;-47
2021/12/11 07:53:05;;;;;;;21.10;12.37;;;1.70;99.90;;;;;;5052440;28;20194;-46
2021/12/11 07:55:32;;;;;;;20.77;12.20;;;1.80;99.90;;;;;;5059346;28;20207;-47
2021/12/11 07:57:59;;;;;;;21.10;12.17;;;1.80;99.90;;;;;;5032839;28;20208;-47
2021/12/11 08:00:28;;;;;;;19.73;11.67;;;1.80;99.90;;;;;;5072535;28;20944;-47
2021/12/11 08:02:56;;;;;;;20.83;11.93;;;1.80;99.90;;;;;;5056958;28;20728;-47
2021/12/11 08:05:24;;;;;;;20.27;11.17;;;1.80;99.90;;;;;;5080221;28;20199;-47
2021/12/11 08:07:53;;;;;;;19.37;11.43;;;1.90;99.90;;;;;;5047113;27;20218;-47
2021/12/11 08:10:24;;;;;;;22.17;11.93;;;1.90;99.90;;;;;;5061374;28;20229;-45
2021/12/11 08:12:51;;;;;;;20.57;13.13;;;1.90;99.90;;;;;;5045680;28;20312;-47
2021/12/11 08:15:18;;;;;;;23.50;13.17;;;1.90;99.90;;;;;;5072884;28;20661;-47
2021/12/11 08:17:52;;;;;;;25.33;13.53;;;1.90;99.90;;;;;;5037262;28;20208;-46
2021/12/11 08:20:19;;;;;;;24.93;14.17;;;1.90;99.90;;;;;;5061672;28;20197;-47
2021/12/11 08:22:46;;;;;;;21.47;13.27;;;2.00;99.90;;;;;;5057726;27;20225;-47
2021/12/11 08:25:14;;;;;;;25.47;14.23;;;2.00;99.90;;;;;;5060240;28;20206;-46
2021/12/11 08:27:41;;;;;;;23.23;12.97;;;2.00;99.90;;;;;;5047348;28;20205;-46
2021/12/11 08:30:10;;;;;;;24.23;13.53;;;2.00;99.90;;;;;;5061621;28;20961;-46
2021/12/11 08:32:37;;;;;;;25.33;13.47;;;2.10;99.90;;;;;;5047169;28;20216;-47
2021/12/11 08:35:06;;;;;;;20.00;12.20;;;2.10;99.90;;;;;;5073524;28;20220;-46
2021/12/11 08:37:33;;;;;;;25.13;14.57;;;2.10;99.90;;;;;;5063312;28;20209;-46
2021/12/11 08:40:00;;;;;;;23.83;13.40;;;2.10;99.90;;;;;;5075717;28;20201;-47
2021/12/11 08:42:29;;;;;;;23.87;13.00;;;2.10;99.90;;;;;;5051744;28;20698;-46
2021/12/11 08:45:05;;;;;;;26.90;14.20;;;2.10;99.90;;;;;;5063689;28;20228;-45
2021/12/11 08:47:33;;;;;;;24.70;14.13;;;2.10;99.90;;;;;;5060572;28;20629;-46
2021/12/11 08:50:00;;;;;;;24.70;14.43;;;2.20;99.90;;;;;;5044849;28;20228;-46
2021/12/11 08:52:29;;;;;;;23.00;14.07;;;2.20;99.90;;;;;;5055664;27;20221;-46
2021/12/11 08:54:58;;;;;;;21.93;13.43;;;2.30;99.90;;;;;;5057837;28;20233;-46
2021/12/11 08:57:29;;;;;;;27.90;13.23;;;2.20;99.90;;;;;;5053539;28;20210;-46
2021/12/11 08:59:59;;;;;;;23.80;13.47;;;2.20;99.90;;;;;;5045004;28;20216;-44
2021/12/11 09:02:29;;;;;;;23.33;13.90;;;2.20;99.90;;;;;;5079079;28;20675;-44
2021/12/11 09:05:00;;;;;;;19.93;12.37;;;2.30;99.90;;;;;;5048931;28;20250;-47
2021/12/11 09:07:30;;;;;;;20.73;13.73;;;2.30;99.90;;;;;;5078346;28;20199;-47
2021/12/11 09:10:01;;;;;;;21.97;13.13;;;2.30;99.90;;;;;;5031943;28;20256;-41
2021/12/11 09:12:33;;;;;;;27.63;15.47;;;2.30;99.90;;;;;;5027283;27;20413;-41
2021/12/11 09:15:08;;;;;;;30.33;13.83;;;2.30;99.90;;;;;;5031234;28;20417;-41
2021/12/11 09:17:41;;;;;;;25.60;13.77;;;2.30;99.90;;;;;;5062123;28;20193;-41
2021/12/11 09:20:13;;;;;;;24.27;13.33;;;2.30;99.90;;;;;;5049036;28;20214;-41
2021/12/11 09:22:44;;;;;;;23.10;13.93;;;2.30;99.90;;;;;;5065583;28;20313;-41
2021/12/11 09:25:16;;;;;;;23.03;13.53;;;2.40;99.90;;;;;;5044088;28;20222;-41
2021/12/11 09:27:49;;;;;;;23.13;13.97;;;2.40;99.90;;;;;;5047953;28;20214;-41
2021/12/11 09:30:25;;;;;;;24.57;14.47;;;2.40;99.90;;;;;;5033205;28;20424;-42
2021/12/11 09:32:55;;;;;;;24.07;14.10;;;2.40;99.90;;;;;;5057468;28;20216;-42
2021/12/11 09:35:25;;;;;;;27.17;14.70;;;2.50;99.90;;;;;;5061468;28;20211;-42
2021/12/11 09:37:56;;;;;;;23.93;13.50;;;2.50;99.90;;;;;;5050184;28;20285;-42
2021/12/11 09:40:50;;;;;;;27.97;14.67;;;2.50;99.90;;;;;;5055534;28;20346;-42
2021/12/11 09:43:37;;;;;;;26.40;14.83;;;2.50;99.90;;;;;;5057146;28;20320;-42
2021/12/11 09:46:07;;;;;;;26.17;14.93;;;2.60;99.90;;;;;;5022950;28;20742;-42
2021/12/11 09:48:35;;;;;;;29.30;15.20;;;2.60;99.90;;;;;;5073722;28;20578;-42
2021/12/11 09:51:08;;;;;;;20.53;14.13;;;2.60;99.90;;;;;;5035700;28;20567;-41
2021/12/11 09:53:38;;;;;;;23.37;13.87;;;2.60;99.90;;;;;;5035841;28;20231;-42
2021/12/11 09:56:10;;;;;;;24.47;14.33;;;2.70;99.90;;;;;;5030407;28;20230;-39
2021/12/11 09:58:39;;;;;;;25.73;15.50;;;2.70;99.90;;;;;;5042522;28;20531;-40
2021/12/11 10:01:11;;;;;;;26.57;15.50;;;2.70;99.90;;;;;;5047345;28;24538;-40
2021/12/11 10:03:41;;;;;;;26.47;14.80;;;2.80;99.90;;;;;;5052287;28;20512;-40
2021/12/11 10:06:14;;;;;;;26.10;14.60;;;2.80;99.90;;;;;;5054260;28;20204;-45
2021/12/11 10:08:56;;;;;;;24.33;14.77;;;2.80;99.90;;;;;;5032303;28;20213;-44
2021/12/11 10:11:28;;;;;;;24.17;14.80;;;2.80;99.90;;;;;;5055209;28;20212;-45
2021/12/11 10:14:03;;;;;;;24.33;15.03;;;2.90;99.90;;;;;;5052160;28;20229;-45
2021/12/11 10:16:34;;;;;;;27.57;14.77;;;2.90;99.90;;;;;;5024719;28;20215;-45
2021/12/11 10:19:02;;;;;;;26.73;16.17;;;2.90;99.90;;;;;;5061344;28;20209;-45
2021/12/11 10:21:32;;;;;;;26.80;15.70;;;2.90;99.90;;;;;;5059673;28;20961;-44
2021/12/11 10:24:03;;;;;;;28.90;15.30;;;3.00;99.90;;;;;;5034124;28;20590;-47
2021/12/11 10:26:32;;;;;;;26.33;14.37;;;2.90;99.90;;;;;;5067190;28;20199;-46
2021/12/11 10:29:05;;;;;;;23.10;13.53;;;3.00;99.90;;;;;;5044394;28;20215;-46
2021/12/11 10:31:35;;;;;;;25.67;14.63;;;3.00;99.90;;;;;;5017814;28;20210;-46
2021/12/11 10:34:05;;;;;;;26.50;14.57;;;3.10;99.90;;;;;;5071769;28;20621;-46
2021/12/11 10:36:36;;;;;;;25.77;14.63;;;3.10;99.90;;;;;;5062128;28;20589;-46
2021/12/11 10:39:07;;;;;;;25.53;13.90;;;3.10;99.90;;;;;;5054420;28;20221;-47
2021/12/11 10:41:35;;;;;;;24.73;13.77;;;3.20;99.90;;;;;;5065217;28;20217;-47
2021/12/11 10:44:07;;;;;;;23.43;14.27;;;3.30;99.90;;;;;;5055812;28;20229;-47
2021/12/11 10:46:38;;;;;;;21.43;13.53;;;3.30;99.90;;;;;;5058178;28;20210;-46
2021/12/11 10:49:08;;;;;;;22.70;14.40;;;3.30;99.90;;;;;;5055484;28;20219;-47
2021/12/11 10:51:44;;;;;;;26.87;14.80;;;3.30;99.90;;;;;;5049230;28;20235;-46
2021/12/11 10:54:12;;;;;;;27.40;15.87;;;3.40;99.90;;;;;;5070866;28;20336;-46
2021/12/11 10:56:40;;;;;;;28.10;15.90;;;3.50;99.90;;;;;;5043384;28;20220;-46
2021/12/11 10:59:11;;;;;;;26.77;14.87;;;3.50;99.90;;;;;;5042955;28;20476;-46
2021/12/11 11:01:41;;;;;;;26.27;14.07;;;3.50;99.90;;;;;;5060341;28;20430;-46
2021/12/11 11:04:13;;;;;;;27.33;14.77;;;3.60;99.90;;;;;;5050762;28;20711;-46
2021/12/11 11:06:42;;;;;;;24.97;14.47;;;3.60;99.90;;;;;;5055858;28;20226;-45
2021/12/11 11:09:10;;;;;;;27.30;14.80;;;3.70;99.90;;;;;;5070536;28;21346;-45
2021/12/11 11:11:38;;;;;;;22.93;14.43;;;3.70;99.90;;;;;;5046327;28;20811;-41
2021/12/11 11:14:09;;;;;;;24.83;14.17;;;3.70;99.90;;;;;;5055649;28;20220;-41
2021/12/11 11:16:38;;;;;;;24.40;13.53;;;3.70;99.90;;;;;;5051193;28;20363;-45
2021/12/11 11:19:04;;;;;;;23.10;14.60;;;3.70;99.90;;;;;;5050849;28;20213;-45
2021/12/11 11:21:34;;;;;;;26.03;13.83;;;3.70;99.90;;;;;;5035947;28;20214;-45
2021/12/11 11:24:05;;;;;;;25.63;13.97;;;3.80;99.90;;;;;;5049181;28;20296;-45
2021/12/11 11:26:35;;;;;;;25.63;13.03;;;3.80;99.90;;;;;;5038153;28;20207;-45
2021/12/11 11:29:03;;;;;;;22.30;12.57;;;3.80;99.90;;;;;;5033726;28;21057;-45
2021/12/11 11:31:36;;;;;;;21.80;13.30;;;3.80;99.90;;;;;;5058486;28;20209;-46
2021/12/11 11:34:04;;;;;;;18.93;12.27;;;3.80;99.90;;;;;;5049201;28;20328;-46
2021/12/11 11:36:31;;;;;;;21.57;13.70;;;3.90;99.90;;;;;;5063437;28;20210;-45
2021/12/11 11:39:00;;;;;;;19.07;12.27;;;3.90;99.90;;;;;;5056288;28;20446;-45
2021/12/11 11:41:30;;;;;;;23.90;12.53;;;3.90;99.90;;;;;;5039097;28;20592;-46
2021/12/11 11:43:58;;;;;;;20.63;11.50;;;4.00;99.90;;;;;;5037705;28;20237;-46
2021/12/11 11:46:25;;;;;;;23.50;10.73;;;4.10;99.90;;;;;;5025127;28;20506;-46
2021/12/11 11:48:57;;;;;;;15.50;10.23;;;4.10;99.90;;;;;;5032375;28;20214;-46
2021/12/11 11:51:29;;;;;;;18.23;10.10;;;4.10;99.90;;;;;;5055812;28;20198;-46
2021/12/11 11:53:56;;;;;;;21.30;10.47;;;4.10;99.90;;;;;;5046726;28;20887;-46
2021/12/11 11:56:26;;;;;;;16.67;9.97;;;4.10;99.90;;;;;;5051544;28;20208;-46
2021/12/11 11:58:54;;;;;;;16.40;9.87;;;4.10;99.90;;;;;;5017973;28;20294;-46
2021/12/11 12:01:24;;;;;;;16.43;9.10;;;4.20;99.90;;;;;;5045800;28;20207;-46
2021/12/11 12:03:53;;;;;;;17.30;10.40;;;4.20;99.90;;;;;;5036821;28;20250;-46
2021/12/11 12:06:25;;;;;;;17.87;10.50;;;4.20;99.90;;;;;;5057672;28;20211;-46
2021/12/11 12:08:53;;;;;;;14.70;9.43;;;4.30;99.90;;;;;;5052602;28;20196;-41
2021/12/11 12:11:20;;;;;;;20.03;9.83;;;4.30;99.90;;;;;;5076682;28;20196;-43
2021/12/11 12:13:48;;;;;;;16.60;9.00;;;4.40;99.90;;;;;;5059670;28;20238;-42
2021/12/11 12:16:15;;;;;;;16.33;9.03;;;4.40;99.90;;;;;;5074504;28;20204;-42
2021/12/11 12:18:44;;;;;;;14.87;9.20;;;4.50;99.90;;;;;;5059904;28;20657;-42
2021/12/11 12:21:14;;;;;;;14.53;8.93;;;4.60;99.90;;;;;;5067528;28;20226;-42
2021/12/11 12:23:42;;;;;;;15.40;8.77;;;4.70;99.90;;;;;;5067895;28;20735;-42
2021/12/11 12:26:13;;;;;;;18.90;9.17;;;4.70;99.90;;;;;;5082055;27;20196;-42
2021/12/11 12:28:40;;;;;;;15.30;8.50;;;4.80;99.90;;;;;;5056435;28;20516;-42
2021/12/11 12:31:11;;;;;;;14.43;8.77;;;4.90;99.90;;;;;;5085929;28;20204;-42
2021/12/11 12:33:39;;;;;;;14.80;8.57;;;4.90;99.90;;;;;;5060279;28;20250;-42
2021/12/11 12:36:06;;;;;;;15.17;8.37;;;4.90;99.90;;;;;;5063372;28;20244;-42
2021/12/11 12:38:36;;;;;;;18.40;9.00;;;5.00;99.90;;;;;;5073359;28;20215;-42
2021/12/11 12:41:08;;;;;;;14.07;8.77;;;5.00;99.90;;;;;;5091323;28;20208;-42
2021/12/11 12:44:16;;;;;;;11.73;8.27;;;4.90;99.90;;;;;;5078651;28;20223;-42
2021/12/11 12:46:48;;;;;;;15.53;9.03;;;4.90;99.90;;;;;;5063782;28;20207;-42
2021/12/11 12:49:15;;;;;;;17.60;8.20;;;4.90;99.90;;;;;;5066518;28;20218;-42
2021/12/11 12:51:43;;;;;;;17.00;8.33;;;4.90;99.90;;;;;;5061862;28;20549;-42
2021/12/11 12:54:14;;;;;;;15.93;7.83;;;5.00;99.90;;;;;;5083108;28;20226;-42
2021/12/11 12:56:45;;;;;;;14.23;8.53;;;5.00;99.90;;;;;;5068833;28;20365;-42